ePrivacy and GPDR Cookie Consent by Cookie Consent
EmailTwitter


Surface observations / Quebec / CYUL (71627)

Regions: Quebec | Canada | USA | Europe | France | UK | Elsewhere
Station
Display
Info & Location for CYUL (71627) | Help decoding METAR

Weather Conditions observed on 2024/03/04 at 20:00 UTC at MONTREAL INTL A, QB (CYUL)

Sky conditions: partly cloudy.

Temperature: 9.0 Celsius.

Dewpoint: 5.0 Celsius.

Relative Humidity: 76%

Windchill Factor 6.

Winds: Northeast at 22 km/h or 12 knots.

Mean Sea level Pressure: 102.50 kilopascals.

Altimeter Setting (QNH): 102.47 kilopascals or 30.26 inches of mercury.

Horizontal visibility: 30.00 statute miles or 48.00 kilometers.

Height of the Ceiling: 7620 metres ( 25000 feet ).

Coded METAR:

CYUL 042000Z 03012KT 30SM FEW020 FEW050 BKN250 09/05 A3026 RMK CU1SC1CI7 CU TR

SC TR SLP250=